sensor_id;sensor_type;location;lat;lon;timestamp;P1;durP1;ratioP1;P2;durP2;ratioP2
19038;SDS011;9652;49.014;12.052;2023-03-01T00:00:05;15.67;;;10.33;;
19038;SDS011;9652;49.014;12.052;2023-03-01T00:02:36;13.33;;;9.73;;
19038;SDS011;9652;49.014;12.052;2023-03-01T00:05:04;15.67;;;11.03;;
19038;SDS011;9652;49.014;12.052;2023-03-01T00:07:32;15.90;;;10.20;;
19038;SDS011;9652;49.014;12.052;2023-03-01T00:09:59;13.57;;;9.53;;
19038;SDS011;9652;49.014;12.052;2023-03-01T00:12:27;17.40;;;11.40;;
19038;SDS011;9652;49.014;12.052;2023-03-01T00:14:54;16.20;;;9.40;;
19038;SDS011;9652;49.014;12.052;2023-03-01T00:17:21;16.20;;;10.03;;
19038;SDS011;9652;49.014;12.052;2023-03-01T00:19:48;16.70;;;9.90;;
19038;SDS011;9652;49.014;12.052;2023-03-01T00:22:15;14.23;;;10.10;;
19038;SDS011;9652;49.014;12.052;2023-03-01T00:24:42;15.33;;;10.33;;
19038;SDS011;9652;49.014;12.052;2023-03-01T00:27:10;17.43;;;11.60;;
19038;SDS011;9652;49.014;12.052;2023-03-01T00:29:38;15.20;;;10.10;;
19038;SDS011;9652;49.014;12.052;2023-03-01T00:32:05;16.23;;;10.33;;
19038;SDS011;9652;49.014;12.052;2023-03-01T00:34:32;16.53;;;11.03;;
19038;SDS011;9652;49.014;12.052;2023-03-01T00:36:59;15.73;;;10.73;;
19038;SDS011;9652;49.014;12.052;2023-03-01T00:39:30;15.47;;;11.33;;
19038;SDS011;9652;49.014;12.052;2023-03-01T00:41:58;16.43;;;10.77;;
19038;SDS011;9652;49.014;12.052;2023-03-01T00:44:26;18.10;;;11.03;;
19038;SDS011;9652;49.014;12.052;2023-03-01T00:46:54;17.67;;;11.27;;
19038;SDS011;9652;49.014;12.052;2023-03-01T00:49:21;17.03;;;10.93;;
19038;SDS011;9652;49.014;12.052;2023-03-01T00:51:52;18.87;;;11.47;;
19038;SDS011;9652;49.014;12.052;2023-03-01T00:54:22;16.00;;;10.53;;
19038;SDS011;9652;49.014;12.052;2023-03-01T00:56:49;18.93;;;10.93;;
19038;SDS011;9652;49.014;12.052;2023-03-01T00:59:16;16.60;;;10.40;;
19038;SDS011;9652;49.014;12.052;2023-03-01T01:01:43;21.50;;;10.97;;
19038;SDS011;9652;49.014;12.052;2023-03-01T01:04:13;16.73;;;11.00;;
19038;SDS011;9652;49.014;12.052;2023-03-01T01:06:41;16.53;;;11.03;;
19038;SDS011;9652;49.014;12.052;2023-03-01T01:09:11;17.90;;;11.57;;
19038;SDS011;9652;49.014;12.052;2023-03-01T01:11:43;19.87;;;12.43;;
19038;SDS011;9652;49.014;12.052;2023-03-01T01:14:12;18.17;;;11.80;;
19038;SDS011;9652;49.014;12.052;2023-03-01T01:16:40;17.90;;;11.23;;
19038;SDS011;9652;49.014;12.052;2023-03-01T01:19:07;18.53;;;12.27;;
19038;SDS011;9652;49.014;12.052;2023-03-01T01:21:37;18.43;;;11.73;;
19038;SDS011;9652;49.014;12.052;2023-03-01T01:24:05;16.90;;;12.03;;
19038;SDS011;9652;49.014;12.052;2023-03-01T01:26:33;16.43;;;11.20;;
19038;SDS011;9652;49.014;12.052;2023-03-01T01:29:01;18.90;;;11.33;;
19038;SDS011;9652;49.014;12.052;2023-03-01T01:31:31;15.73;;;11.03;;
19038;SDS011;9652;49.014;12.052;2023-03-01T01:34:00;20.50;;;11.63;;
19038;SDS011;9652;49.014;12.052;2023-03-01T01:36:31;17.57;;;10.97;;
19038;SDS011;9652;49.014;12.052;2023-03-01T01:39:00;18.30;;;11.07;;
19038;SDS011;9652;49.014;12.052;2023-03-01T01:41:28;19.77;;;10.57;;
19038;SDS011;9652;49.014;12.052;2023-03-01T01:44:12;21.07;;;10.83;;
19038;SDS011;9652;49.014;12.052;2023-03-01T01:46:44;16.03;;;11.40;;
19038;SDS011;9652;49.014;12.052;2023-03-01T01:49:17;17.63;;;11.60;;
19038;SDS011;9652;49.014;12.052;2023-03-01T01:51:55;18.00;;;10.90;;
19038;SDS011;9652;49.014;12.052;2023-03-01T01:54:34;18.13;;;11.00;;
19038;SDS011;9652;49.014;12.052;2023-03-01T01:57:09;19.90;;;12.43;;
19038;SDS011;9652;49.014;12.052;2023-03-01T01:59:41;18.90;;;11.07;;
19038;SDS011;9652;49.014;12.052;2023-03-01T02:02:14;16.67;;;10.57;;
19038;SDS011;9652;49.014;12.052;2023-03-01T02:04:41;14.70;;;10.30;;
19038;SDS011;9652;49.014;12.052;2023-03-01T02:07:11;16.33;;;11.53;;
19038;SDS011;9652;49.014;12.052;2023-03-01T02:09:46;16.10;;;10.87;;
19038;SDS011;9652;49.014;12.052;2023-03-01T02:12:18;17.50;;;11.57;;
19038;SDS011;9652;49.014;12.052;2023-03-01T02:14:49;15.37;;;10.93;;
19038;SDS011;9652;49.014;12.052;2023-03-01T02:17:16;17.87;;;11.63;;
19038;SDS011;9652;49.014;12.052;2023-03-01T02:19:48;21.60;;;11.77;;
19038;SDS011;9652;49.014;12.052;2023-03-01T02:22:32;17.43;;;10.97;;
19038;SDS011;9652;49.014;12.052;2023-03-01T02:25:07;18.60;;;11.23;;
19038;SDS011;9652;49.014;12.052;2023-03-01T02:27:58;17.63;;;11.63;;
19038;SDS011;9652;49.014;12.052;2023-03-01T02:30:35;17.37;;;10.87;;
19038;SDS011;9652;49.014;12.052;2023-03-01T02:33:23;16.83;;;11.00;;
19038;SDS011;9652;49.014;12.052;2023-03-01T02:35:50;17.13;;;11.37;;
19038;SDS011;9652;49.014;12.052;2023-03-01T02:38:20;18.70;;;11.37;;
19038;SDS011;9652;49.014;12.052;2023-03-01T02:40:50;16.73;;;9.87;;
19038;SDS011;9652;49.014;12.052;2023-03-01T02:43:18;14.70;;;10.17;;
19038;SDS011;9652;49.014;12.052;2023-03-01T02:45:50;17.17;;;10.90;;
19038;SDS011;9652;49.014;12.052;2023-03-01T02:48:19;19.87;;;11.23;;
19038;SDS011;9652;49.014;12.052;2023-03-01T02:50:52;16.37;;;11.10;;
19038;SDS011;9652;49.014;12.052;2023-03-01T02:53:33;17.90;;;11.30;;
19038;SDS011;9652;49.014;12.052;2023-03-01T02:56:11;15.80;;;10.47;;
19038;SDS011;9652;49.014;12.052;2023-03-01T02:58:40;19.93;;;10.50;;
19038;SDS011;9652;49.014;12.052;2023-03-01T03:01:14;16.00;;;10.93;;
19038;SDS011;9652;49.014;12.052;2023-03-01T03:03:41;16.30;;;10.20;;
19038;SDS011;9652;49.014;12.052;2023-03-01T03:06:10;21.00;;;12.53;;
19038;SDS011;9652;49.014;12.052;2023-03-01T03:08:37;16.77;;;10.43;;
19038;SDS011;9652;49.014;12.052;2023-03-01T03:11:04;17.53;;;10.60;;
19038;SDS011;9652;49.014;12.052;2023-03-01T03:13:31;17.00;;;10.73;;
19038;SDS011;9652;49.014;12.052;2023-03-01T03:15:58;15.67;;;10.77;;
19038;SDS011;9652;49.014;12.052;2023-03-01T03:18:27;20.17;;;11.87;;
19038;SDS011;9652;49.014;12.052;2023-03-01T03:20:54;14.43;;;10.73;;
19038;SDS011;9652;49.014;12.052;2023-03-01T03:23:21;17.20;;;10.77;;
19038;SDS011;9652;49.014;12.052;2023-03-01T03:25:49;16.23;;;10.73;;
19038;SDS011;9652;49.014;12.052;2023-03-01T03:28:17;15.97;;;11.43;;
19038;SDS011;9652;49.014;12.052;2023-03-01T03:30:44;15.60;;;10.60;;
19038;SDS011;9652;49.014;12.052;2023-03-01T03:33:12;20.03;;;12.83;;
19038;SDS011;9652;49.014;12.052;2023-03-01T03:35:42;16.17;;;10.63;;
19038;SDS011;9652;49.014;12.052;2023-03-01T03:38:12;17.47;;;10.83;;
19038;SDS011;9652;49.014;12.052;2023-03-01T03:40:43;16.43;;;11.40;;
19038;SDS011;9652;49.014;12.052;2023-03-01T03:43:13;17.73;;;10.90;;
19038;SDS011;9652;49.014;12.052;2023-03-01T03:45:43;16.03;;;10.70;;
19038;SDS011;9652;49.014;12.052;2023-03-01T03:48:11;19.53;;;10.77;;
19038;SDS011;9652;49.014;12.052;2023-03-01T03:50:39;19.10;;;12.63;;
19038;SDS011;9652;49.014;12.052;2023-03-01T03:53:13;16.27;;;11.03;;
19038;SDS011;9652;49.014;12.052;2023-03-01T03:55:40;16.63;;;12.10;;
19038;SDS011;9652;49.014;12.052;2023-03-01T03:58:08;19.60;;;13.17;;
19038;SDS011;9652;49.014;12.052;2023-03-01T04:00:37;20.83;;;10.73;;
19038;SDS011;9652;49.014;12.052;2023-03-01T04:03:07;17.10;;;10.90;;
19038;SDS011;9652;49.014;12.052;2023-03-01T04:05:36;15.20;;;9.83;;
19038;SDS011;9652;49.014;12.052;2023-03-01T04:08:06;16.77;;;11.13;;
19038;SDS011;9652;49.014;12.052;2023-03-01T04:10:36;19.40;;;12.47;;
19038;SDS011;9652;49.014;12.052;2023-03-01T04:13:06;20.30;;;12.40;;
19038;SDS011;9652;49.014;12.052;2023-03-01T04:15:36;19.50;;;13.13;;
19038;SDS011;9652;49.014;12.052;2023-03-01T04:18:04;17.87;;;12.10;;
19038;SDS011;9652;49.014;12.052;2023-03-01T04:20:33;18.37;;;12.17;;
19038;SDS011;9652;49.014;12.052;2023-03-01T04:23:02;16.00;;;10.70;;
19038;SDS011;9652;49.014;12.052;2023-03-01T04:25:40;17.17;;;10.87;;
19038;SDS011;9652;49.014;12.052;2023-03-01T04:28:09;18.83;;;11.57;;
19038;SDS011;9652;49.014;12.052;2023-03-01T04:30:36;22.77;;;12.77;;
19038;SDS011;9652;49.014;12.052;2023-03-01T04:33:05;18.43;;;11.20;;
19038;SDS011;9652;49.014;12.052;2023-03-01T04:35:35;13.73;;;10.60;;
19038;SDS011;9652;49.014;12.052;2023-03-01T04:38:03;20.57;;;12.13;;
19038;SDS011;9652;49.014;12.052;2023-03-01T04:40:32;19.50;;;12.13;;
19038;SDS011;9652;49.014;12.052;2023-03-01T04:43:02;18.07;;;11.77;;
19038;SDS011;9652;49.014;12.052;2023-03-01T04:45:31;18.03;;;11.80;;
19038;SDS011;9652;49.014;12.052;2023-03-01T04:48:00;17.37;;;11.67;;
19038;SDS011;9652;49.014;12.052;2023-03-01T04:50:29;18.67;;;11.53;;
19038;SDS011;9652;49.014;12.052;2023-03-01T04:52:56;17.83;;;11.43;;
19038;SDS011;9652;49.014;12.052;2023-03-01T04:55:24;21.73;;;12.73;;
19038;SDS011;9652;49.014;12.052;2023-03-01T04:57:52;16.80;;;11.90;;
19038;SDS011;9652;49.014;12.052;2023-03-01T05:00:21;18.53;;;11.30;;
19038;SDS011;9652;49.014;12.052;2023-03-01T05:02:49;22.70;;;10.73;;
19038;SDS011;9652;49.014;12.052;2023-03-01T05:05:20;23.50;;;12.77;;
19038;SDS011;9652;49.014;12.052;2023-03-01T05:07:51;18.50;;;13.03;;
19038;SDS011;9652;49.014;12.052;2023-03-01T05:10:19;17.07;;;12.03;;
19038;SDS011;9652;49.014;12.052;2023-03-01T05:12:47;21.47;;;12.07;;
19038;SDS011;9652;49.014;12.052;2023-03-01T05:15:14;19.97;;;12.60;;
19038;SDS011;9652;49.014;12.052;2023-03-01T05:17:43;24.23;;;12.70;;
19038;SDS011;9652;49.014;12.052;2023-03-01T05:20:11;18.30;;;12.40;;
19038;SDS011;9652;49.014;12.052;2023-03-01T05:22:38;17.93;;;11.87;;
19038;SDS011;9652;49.014;12.052;2023-03-01T05:25:06;20.47;;;11.47;;
19038;SDS011;9652;49.014;12.052;2023-03-01T05:27:33;16.67;;;11.23;;
19038;SDS011;9652;49.014;12.052;2023-03-01T05:30:01;17.77;;;12.10;;
19038;SDS011;9652;49.014;12.052;2023-03-01T05:32:39;19.47;;;12.87;;
19038;SDS011;9652;49.014;12.052;2023-03-01T05:35:10;19.30;;;11.60;;
19038;SDS011;9652;49.014;12.052;2023-03-01T05:37:39;22.37;;;12.90;;
19038;SDS011;9652;49.014;12.052;2023-03-01T05:40:09;21.27;;;12.50;;
19038;SDS011;9652;49.014;12.052;2023-03-01T05:42:45;18.03;;;11.63;;
19038;SDS011;9652;49.014;12.052;2023-03-01T05:45:14;17.37;;;12.07;;
19038;SDS011;9652;49.014;12.052;2023-03-01T05:47:45;21.53;;;12.53;;
19038;SDS011;9652;49.014;12.052;2023-03-01T05:50:15;21.23;;;12.97;;
19038;SDS011;9652;49.014;12.052;2023-03-01T05:52:45;19.60;;;12.37;;
19038;SDS011;9652;49.014;12.052;2023-03-01T05:55:14;17.30;;;11.60;;
19038;SDS011;9652;49.014;12.052;2023-03-01T05:57:42;20.80;;;13.20;;
19038;SDS011;9652;49.014;12.052;2023-03-01T06:00:09;19.53;;;12.47;;
19038;SDS011;9652;49.014;12.052;2023-03-01T06:02:39;25.40;;;14.40;;
19038;SDS011;9652;49.014;12.052;2023-03-01T06:05:09;22.60;;;12.60;;
19038;SDS011;9652;49.014;12.052;2023-03-01T06:07:38;22.00;;;13.03;;
19038;SDS011;9652;49.014;12.052;2023-03-01T06:10:07;22.57;;;13.37;;
19038;SDS011;9652;49.014;12.052;2023-03-01T06:12:36;22.50;;;13.93;;
19038;SDS011;9652;49.014;12.052;2023-03-01T06:15:05;20.50;;;12.47;;
19038;SDS011;9652;49.014;12.052;2023-03-01T06:17:35;21.77;;;12.73;;
19038;SDS011;9652;49.014;12.052;2023-03-01T06:20:06;23.67;;;14.40;;
19038;SDS011;9652;49.014;12.052;2023-03-01T06:22:38;24.50;;;14.13;;
19038;SDS011;9652;49.014;12.052;2023-03-01T06:25:06;22.83;;;15.13;;
19038;SDS011;9652;49.014;12.052;2023-03-01T06:27:34;24.60;;;15.27;;
19038;SDS011;9652;49.014;12.052;2023-03-01T06:30:02;21.93;;;13.13;;
19038;SDS011;9652;49.014;12.052;2023-03-01T06:32:30;23.13;;;13.80;;
19038;SDS011;9652;49.014;12.052;2023-03-01T06:34:57;22.07;;;14.17;;
19038;SDS011;9652;49.014;12.052;2023-03-01T06:37:26;29.27;;;13.83;;
19038;SDS011;9652;49.014;12.052;2023-03-01T06:39:53;20.67;;;12.33;;
19038;SDS011;9652;49.014;12.052;2023-03-01T06:42:20;21.80;;;13.83;;
19038;SDS011;9652;49.014;12.052;2023-03-01T06:44:47;21.90;;;14.07;;
19038;SDS011;9652;49.014;12.052;2023-03-01T06:47:14;21.73;;;12.93;;
19038;SDS011;9652;49.014;12.052;2023-03-01T06:49:41;24.07;;;14.47;;
19038;SDS011;9652;49.014;12.052;2023-03-01T06:52:08;22.17;;;13.07;;
19038;SDS011;9652;49.014;12.052;2023-03-01T06:54:36;25.63;;;14.33;;
19038;SDS011;9652;49.014;12.052;2023-03-01T06:57:03;24.27;;;13.90;;
19038;SDS011;9652;49.014;12.052;2023-03-01T06:59:30;19.70;;;12.73;;
19038;SDS011;9652;49.014;12.052;2023-03-01T07:01:57;21.60;;;13.30;;
19038;SDS011;9652;49.014;12.052;2023-03-01T07:04:24;23.67;;;13.97;;
19038;SDS011;9652;49.014;12.052;2023-03-01T07:06:53;22.60;;;13.03;;
19038;SDS011;9652;49.014;12.052;2023-03-01T07:09:20;21.73;;;14.33;;
19038;SDS011;9652;49.014;12.052;2023-03-01T07:11:50;23.53;;;13.40;;
19038;SDS011;9652;49.014;12.052;2023-03-01T07:14:17;24.77;;;15.10;;
19038;SDS011;9652;49.014;12.052;2023-03-01T07:16:44;19.60;;;13.10;;
19038;SDS011;9652;49.014;12.052;2023-03-01T07:19:12;18.73;;;13.07;;
19038;SDS011;9652;49.014;12.052;2023-03-01T07:21:39;19.23;;;12.67;;
19038;SDS011;9652;49.014;12.052;2023-03-01T07:24:06;22.13;;;13.13;;
19038;SDS011;9652;49.014;12.052;2023-03-01T07:26:34;23.50;;;14.97;;
19038;SDS011;9652;49.014;12.052;2023-03-01T07:29:02;20.20;;;12.57;;
19038;SDS011;9652;49.014;12.052;2023-03-01T07:31:32;19.10;;;12.67;;
19038;SDS011;9652;49.014;12.052;2023-03-01T07:33:59;17.30;;;11.97;;
19038;SDS011;9652;49.014;12.052;2023-03-01T07:36:26;17.97;;;12.50;;
19038;SDS011;9652;49.014;12.052;2023-03-01T07:38:54;21.63;;;13.53;;
19038;SDS011;9652;49.014;12.052;2023-03-01T07:41:22;16.03;;;10.60;;
19038;SDS011;9652;49.014;12.052;2023-03-01T07:43:50;19.83;;;13.20;;
19038;SDS011;9652;49.014;12.052;2023-03-01T07:46:18;22.97;;;14.47;;
19038;SDS011;9652;49.014;12.052;2023-03-01T07:48:45;22.63;;;12.87;;
19038;SDS011;9652;49.014;12.052;2023-03-01T07:51:13;21.33;;;13.63;;
19038;SDS011;9652;49.014;12.052;2023-03-01T07:53:40;23.07;;;13.93;;
19038;SDS011;9652;49.014;12.052;2023-03-01T07:56:07;19.80;;;13.63;;
19038;SDS011;9652;49.014;12.052;2023-03-01T07:58:37;25.23;;;14.37;;
19038;SDS011;9652;49.014;12.052;2023-03-01T08:01:06;22.27;;;13.90;;
19038;SDS011;9652;49.014;12.052;2023-03-01T08:03:37;22.87;;;13.70;;
19038;SDS011;9652;49.014;12.052;2023-03-01T08:06:05;22.23;;;12.40;;
19038;SDS011;9652;49.014;12.052;2023-03-01T08:08:36;22.73;;;13.80;;
19038;SDS011;9652;49.014;12.052;2023-03-01T08:11:04;22.47;;;13.83;;
19038;SDS011;9652;49.014;12.052;2023-03-01T08:13:33;24.27;;;12.70;;
19038;SDS011;9652;49.014;12.052;2023-03-01T08:16:01;22.17;;;12.73;;
19038;SDS011;9652;49.014;12.052;2023-03-01T08:18:30;20.10;;;12.60;;
19038;SDS011;9652;49.014;12.052;2023-03-01T08:21:02;23.57;;;13.53;;
19038;SDS011;9652;49.014;12.052;2023-03-01T08:23:30;23.40;;;13.47;;
19038;SDS011;9652;49.014;12.052;2023-03-01T08:26:04;22.17;;;14.33;;
19038;SDS011;9652;49.014;12.052;2023-03-01T08:28:34;23.30;;;13.53;;
19038;SDS011;9652;49.014;12.052;2023-03-01T08:31:02;22.60;;;14.27;;
19038;SDS011;9652;49.014;12.052;2023-03-01T08:33:38;23.60;;;14.00;;
19038;SDS011;9652;49.014;12.052;2023-03-01T08:36:07;24.60;;;14.13;;
19038;SDS011;9652;49.014;12.052;2023-03-01T08:38:34;21.57;;;13.07;;
19038;SDS011;9652;49.014;12.052;2023-03-01T08:41:02;21.50;;;12.23;;
19038;SDS011;9652;49.014;12.052;2023-03-01T08:43:30;20.90;;;13.00;;
19038;SDS011;9652;49.014;12.052;2023-03-01T08:45:57;20.37;;;12.13;;
19038;SDS011;9652;49.014;12.052;2023-03-01T08:48:24;18.67;;;12.43;;
19038;SDS011;9652;49.014;12.052;2023-03-01T08:50:53;18.17;;;11.10;;
19038;SDS011;9652;49.014;12.052;2023-03-01T08:53:22;20.30;;;11.90;;
19038;SDS011;9652;49.014;12.052;2023-03-01T08:55:49;20.33;;;12.00;;
19038;SDS011;9652;49.014;12.052;2023-03-01T08:58:16;19.67;;;12.13;;
19038;SDS011;9652;49.014;12.052;2023-03-01T09:00:43;18.63;;;12.10;;
19038;SDS011;9652;49.014;12.052;2023-03-01T09:03:10;16.77;;;11.57;;
19038;SDS011;9652;49.014;12.052;2023-03-01T09:05:37;17.83;;;11.77;;
19038;SDS011;9652;49.014;12.052;2023-03-01T09:08:04;16.60;;;10.27;;
19038;SDS011;9652;49.014;12.052;2023-03-01T09:10:38;19.13;;;12.43;;
19038;SDS011;9652;49.014;12.052;2023-03-01T09:13:05;21.13;;;11.83;;
19038;SDS011;9652;49.014;12.052;2023-03-01T09:15:32;14.97;;;10.47;;
19038;SDS011;9652;49.014;12.052;2023-03-01T09:17:59;16.90;;;10.20;;
19038;SDS011;9652;49.014;12.052;2023-03-01T09:20:26;16.30;;;10.77;;
19038;SDS011;9652;49.014;12.052;2023-03-01T09:22:53;15.43;;;10.60;;
19038;SDS011;9652;49.014;12.052;2023-03-01T09:25:20;17.07;;;11.47;;
19038;SDS011;9652;49.014;12.052;2023-03-01T09:27:51;17.47;;;12.07;;
19038;SDS011;9652;49.014;12.052;2023-03-01T09:30:18;19.03;;;11.53;;
19038;SDS011;9652;49.014;12.052;2023-03-01T09:32:46;19.27;;;11.93;;
19038;SDS011;9652;49.014;12.052;2023-03-01T09:35:14;24.13;;;14.20;;
19038;SDS011;9652;49.014;12.052;2023-03-01T09:37:41;18.13;;;12.13;;
19038;SDS011;9652;49.014;12.052;2023-03-01T09:40:11;18.20;;;12.53;;
19038;SDS011;9652;49.014;12.052;2023-03-01T09:42:46;18.40;;;12.10;;
19038;SDS011;9652;49.014;12.052;2023-03-01T09:45:27;18.97;;;11.53;;
19038;SDS011;9652;49.014;12.052;2023-03-01T09:48:01;20.63;;;11.73;;
19038;SDS011;9652;49.014;12.052;2023-03-01T09:50:33;15.37;;;11.20;;
19038;SDS011;9652;49.014;12.052;2023-03-01T09:53:09;15.90;;;10.27;;
19038;SDS011;9652;49.014;12.052;2023-03-01T09:55:43;15.40;;;10.50;;
19038;SDS011;9652;49.014;12.052;2023-03-01T09:58:23;19.53;;;11.73;;
19038;SDS011;9652;49.014;12.052;2023-03-01T10:01:09;16.83;;;11.47;;
19038;SDS011;9652;49.014;12.052;2023-03-01T10:07:03;18.77;;;12.27;;
19038;SDS011;9652;49.014;12.052;2023-03-01T10:09:47;18.30;;;11.90;;
19038;SDS011;9652;49.014;12.052;2023-03-01T10:12:15;18.40;;;11.27;;
19038;SDS011;9652;49.014;12.052;2023-03-01T10:14:51;17.20;;;10.77;;
19038;SDS011;9652;49.014;12.052;2023-03-01T10:17:28;19.40;;;11.23;;
19038;SDS011;9652;49.014;12.052;2023-03-01T10:20:10;15.80;;;11.53;;
19038;SDS011;9652;49.014;12.052;2023-03-01T10:22:44;16.13;;;10.87;;
19038;SDS011;9652;49.014;12.052;2023-03-01T10:25:17;18.37;;;11.30;;
19038;SDS011;9652;49.014;12.052;2023-03-01T10:27:59;15.73;;;10.93;;
19038;SDS011;9652;49.014;12.052;2023-03-01T10:30:38;16.40;;;11.57;;
19038;SDS011;9652;49.014;12.052;2023-03-01T10:33:12;19.30;;;11.83;;
19038;SDS011;9652;49.014;12.052;2023-03-01T10:35:46;17.40;;;10.75;;
19038;SDS011;9652;49.014;12.052;2023-03-01T10:38:14;14.63;;;10.57;;
19038;SDS011;9652;49.014;12.052;2023-03-01T10:40:53;14.10;;;9.43;;
19038;SDS011;9652;49.014;12.052;2023-03-01T10:43:23;15.90;;;10.87;;
19038;SDS011;9652;49.014;12.052;2023-03-01T10:45:54;14.57;;;10.37;;
19038;SDS011;9652;49.014;12.052;2023-03-01T10:48:22;13.73;;;9.70;;
19038;SDS011;9652;49.014;12.052;2023-03-01T10:51:04;14.43;;;10.13;;
19038;SDS011;9652;49.014;12.052;2023-03-01T10:53:34;15.87;;;10.13;;
19038;SDS011;9652;49.014;12.052;2023-03-01T10:56:04;18.10;;;10.10;;
19038;SDS011;9652;49.014;12.052;2023-03-01T10:58:34;17.40;;;10.87;;
19038;SDS011;9652;49.014;12.052;2023-03-01T11:01:05;15.80;;;10.90;;
19038;SDS011;9652;49.014;12.052;2023-03-01T11:04:03;18.07;;;10.37;;
19038;SDS011;9652;49.014;12.052;2023-03-01T11:06:38;17.50;;;11.77;;
19038;SDS011;9652;49.014;12.052;2023-03-01T11:09:13;19.57;;;11.70;;
19038;SDS011;9652;49.014;12.052;2023-03-01T11:11:42;14.70;;;10.47;;
19038;SDS011;9652;49.014;12.052;2023-03-01T11:14:13;15.80;;;10.27;;
19038;SDS011;9652;49.014;12.052;2023-03-01T11:16:46;17.80;;;11.43;;
19038;SDS011;9652;49.014;12.052;2023-03-01T11:19:25;21.17;;;12.63;;
19038;SDS011;9652;49.014;12.052;2023-03-01T11:21:57;15.73;;;11.03;;
19038;SDS011;9652;49.014;12.052;2023-03-01T11:24:32;15.20;;;10.87;;
19038;SDS011;9652;49.014;12.052;2023-03-01T11:27:08;17.37;;;10.47;;
19038;SDS011;9652;49.014;12.052;2023-03-01T11:29:45;17.30;;;10.63;;
19038;SDS011;9652;49.014;12.052;2023-03-01T11:32:19;19.13;;;12.07;;
19038;SDS011;9652;49.014;12.052;2023-03-01T11:34:54;16.47;;;11.13;;
19038;SDS011;9652;49.014;12.052;2023-03-01T11:37:29;16.70;;;10.87;;
19038;SDS011;9652;49.014;12.052;2023-03-01T11:40:07;15.40;;;10.10;;
19038;SDS011;9652;49.014;12.052;2023-03-01T11:42:50;14.07;;;10.07;;
19038;SDS011;9652;49.014;12.052;2023-03-01T11:45:33;14.40;;;10.17;;
19038;SDS011;9652;49.014;12.052;2023-03-01T11:48:27;13.80;;;8.83;;
19038;SDS011;9652;49.014;12.052;2023-03-01T11:51:13;17.87;;;10.17;;
19038;SDS011;9652;49.014;12.052;2023-03-01T11:53:51;12.97;;;9.13;;
19038;SDS011;9652;49.014;12.052;2023-03-01T11:56:47;18.50;;;12.07;;
19038;SDS011;9652;49.014;12.052;2023-03-01T11:59:37;15.83;;;11.20;;
19038;SDS011;9652;49.014;12.052;2023-03-01T12:02:58;19.60;;;11.70;;
19038;SDS011;9652;49.014;12.052;2023-03-01T12:08:59;15.00;;;10.23;;
19038;SDS011;9652;49.014;12.052;2023-03-01T12:11:50;17.40;;;11.37;;
19038;SDS011;9652;49.014;12.052;2023-03-01T12:14:53;19.00;;;12.00;;
19038;SDS011;9652;49.014;12.052;2023-03-01T12:17:49;18.60;;;11.80;;
19038;SDS011;9652;49.014;12.052;2023-03-01T12:20:36;16.07;;;11.10;;
19038;SDS011;9652;49.014;12.052;2023-03-01T12:23:29;16.57;;;11.07;;
19038;SDS011;9652;49.014;12.052;2023-03-01T12:26:23;19.87;;;10.50;;
19038;SDS011;9652;49.014;12.052;2023-03-01T12:29:02;17.17;;;11.13;;
19038;SDS011;9652;49.014;12.052;2023-03-01T12:35:11;17.30;;;10.67;;
19038;SDS011;9652;49.014;12.052;2023-03-01T12:38:08;18.03;;;10.47;;
19038;SDS011;9652;49.014;12.052;2023-03-01T12:44:09;19.17;;;11.43;;
19038;SDS011;9652;49.014;12.052;2023-03-01T12:46:52;19.43;;;10.90;;
19038;SDS011;9652;49.014;12.052;2023-03-01T12:49:37;18.77;;;11.83;;
19038;SDS011;9652;49.014;12.052;2023-03-01T12:52:12;16.13;;;10.63;;
19038;SDS011;9652;49.014;12.052;2023-03-01T12:54:47;20.23;;;11.87;;
19038;SDS011;9652;49.014;12.052;2023-03-01T12:57:20;17.87;;;11.87;;
19038;SDS011;9652;49.014;12.052;2023-03-01T13:00:05;18.53;;;11.77;;
19038;SDS011;9652;49.014;12.052;2023-03-01T13:02:55;19.50;;;11.93;;
19038;SDS011;9652;49.014;12.052;2023-03-01T13:05:37;17.47;;;11.43;;
19038;SDS011;9652;49.014;12.052;2023-03-01T13:08:19;19.53;;;11.40;;
19038;SDS011;9652;49.014;12.052;2023-03-01T13:10:56;16.40;;;10.87;;
19038;SDS011;9652;49.014;12.052;2023-03-01T13:13:30;15.97;;;10.97;;
19038;SDS011;9652;49.014;12.052;2023-03-01T13:15:58;17.97;;;11.37;;
19038;SDS011;9652;49.014;12.052;2023-03-01T13:19:08;17.50;;;10.80;;
19038;SDS011;9652;49.014;12.052;2023-03-01T13:21:40;18.23;;;11.73;;
19038;SDS011;9652;49.014;12.052;2023-03-01T13:24:26;18.97;;;11.13;;
19038;SDS011;9652;49.014;12.052;2023-03-01T13:27:09;18.70;;;11.47;;
19038;SDS011;9652;49.014;12.052;2023-03-01T13:29:51;17.17;;;11.70;;
19038;SDS011;9652;49.014;12.052;2023-03-01T13:32:21;20.60;;;11.47;;
19038;SDS011;9652;49.014;12.052;2023-03-01T13:34:59;19.33;;;11.60;;
19038;SDS011;9652;49.014;12.052;2023-03-01T13:37:33;17.87;;;11.77;;
19038;SDS011;9652;49.014;12.052;2023-03-01T13:40:04;17.70;;;10.23;;
19038;SDS011;9652;49.014;12.052;2023-03-01T13:43:28;18.53;;;11.53;;
19038;SDS011;9652;49.014;12.052;2023-03-01T13:45:59;16.80;;;10.70;;
19038;SDS011;9652;49.014;12.052;2023-03-01T13:48:29;18.83;;;11.47;;
19038;SDS011;9652;49.014;12.052;2023-03-01T13:51:00;20.57;;;12.60;;
19038;SDS011;9652;49.014;12.052;2023-03-01T13:53:31;17.97;;;11.33;;
19038;SDS011;9652;49.014;12.052;2023-03-01T13:56:06;14.93;;;10.33;;
19038;SDS011;9652;49.014;12.052;2023-03-01T13:58:44;18.57;;;12.20;;
19038;SDS011;9652;49.014;12.052;2023-03-01T14:01:28;18.90;;;12.17;;
19038;SDS011;9652;49.014;12.052;2023-03-01T14:04:00;19.17;;;12.13;;
19038;SDS011;9652;49.014;12.052;2023-03-01T14:06:30;18.20;;;12.20;;
19038;SDS011;9652;49.014;12.052;2023-03-01T14:09:02;19.77;;;12.83;;
19038;SDS011;9652;49.014;12.052;2023-03-01T14:11:50;20.43;;;12.90;;
19038;SDS011;9652;49.014;12.052;2023-03-01T14:14:43;22.60;;;13.73;;
19038;SDS011;9652;49.014;12.052;2023-03-01T14:17:24;19.67;;;12.33;;
19038;SDS011;9652;49.014;12.052;2023-03-01T14:20:16;21.57;;;13.00;;
19038;SDS011;9652;49.014;12.052;2023-03-01T14:22:46;20.23;;;12.97;;
19038;SDS011;9652;49.014;12.052;2023-03-01T14:25:20;20.90;;;12.43;;
19038;SDS011;9652;49.014;12.052;2023-03-01T14:27:56;20.23;;;13.10;;
19038;SDS011;9652;49.014;12.052;2023-03-01T14:30:30;16.53;;;10.87;;
19038;SDS011;9652;49.014;12.052;2023-03-01T14:33:05;17.63;;;10.80;;
19038;SDS011;9652;49.014;12.052;2023-03-01T14:35:51;17.40;;;11.10;;
19038;SDS011;9652;49.014;12.052;2023-03-01T14:38:22;18.80;;;11.07;;
19038;SDS011;9652;49.014;12.052;2023-03-01T14:40:55;20.70;;;11.47;;
19038;SDS011;9652;49.014;12.052;2023-03-01T14:43:26;18.07;;;11.07;;
19038;SDS011;9652;49.014;12.052;2023-03-01T14:45:56;18.33;;;10.77;;
19038;SDS011;9652;49.014;12.052;2023-03-01T14:48:26;17.67;;;10.83;;
19038;SDS011;9652;49.014;12.052;2023-03-01T14:50:55;19.97;;;10.47;;
19038;SDS011;9652;49.014;12.052;2023-03-01T14:53:25;16.43;;;10.83;;
19038;SDS011;9652;49.014;12.052;2023-03-01T14:55:55;16.13;;;9.97;;
19038;SDS011;9652;49.014;12.052;2023-03-01T14:58:28;19.33;;;11.07;;
19038;SDS011;9652;49.014;12.052;2023-03-01T15:00:58;14.60;;;10.10;;
19038;SDS011;9652;49.014;12.052;2023-03-01T15:03:32;16.13;;;10.23;;